Terminal Aerodrome Forecast
Issued by NWS Louisville, KY

Home | Current Version | Previous Version | Text Only | Print | Product List | Glossary On
Versions: 1 2 3 4 5 6 7 8 9 10 11 12 13 14
000
FTUS43 KLMK 261125
TAFBWG
TAF
KBWG 261125Z 2612/2712 00000KT 5SM BR SCT250
      TEMPO 2612/2613 1 1/2SM BR
     FM261400 08004KT P6SM SCT040
     FM270000 00000KT P6SM SCT250
      TEMPO 2710/2712 5SM BR=

USA.gov is the U.S. government's official web portal to all federal, state and local government web resources and services.